sensor_id;sensor_type;location;lat;lon;timestamp;pressure;altitude;pressure_sealevel;temperature;humidity
82222;BME280;71818;52.352;10.912;2023-08-12T00:00:31;100479.94;;;17.57;77.84
82222;BME280;71818;52.352;10.912;2023-08-12T00:02:57;100476.97;;;17.78;76.77
82222;BME280;71818;52.352;10.912;2023-08-12T00:05:24;100483.66;;;18.00;75.94
82222;BME280;71818;52.352;10.912;2023-08-12T00:07:49;100485.44;;;18.09;75.54
82222;BME280;71818;52.352;10.912;2023-08-12T00:10:15;100476.69;;;17.89;76.32
82222;BME280;71818;52.352;10.912;2023-08-12T00:12:41;100476.19;;;17.68;77.30
82222;BME280;71818;52.352;10.912;2023-08-12T00:15:07;100482.94;;;17.54;78.60
82222;BME280;71818;52.352;10.912;2023-08-12T00:17:34;100476.50;;;17.65;77.86
82222;BME280;71818;52.352;10.912;2023-08-12T00:20:01;100483.56;;;17.83;76.89
82222;BME280;71818;52.352;10.912;2023-08-12T00:22:30;100479.78;;;17.76;77.32
82222;BME280;71818;52.352;10.912;2023-08-12T00:24:55;100479.38;;;17.89;76.54
82222;BME280;71818;52.352;10.912;2023-08-12T00:27:21;100470.69;;;17.69;77.38
82222;BME280;71818;52.352;10.912;2023-08-12T00:29:46;100474.56;;;17.57;78.02
82222;BME280;71818;52.352;10.912;2023-08-12T00:32:12;100475.34;;;17.49;78.52
82222;BME280;71818;52.352;10.912;2023-08-12T00:34:37;100470.72;;;17.59;78.09
82222;BME280;71818;52.352;10.912;2023-08-12T00:37:02;100475.34;;;17.85;76.88
82222;BME280;71818;52.352;10.912;2023-08-12T00:39:28;100468.00;;;18.21;75.51
82222;BME280;71818;52.352;10.912;2023-08-12T00:41:53;100468.00;;;18.21;75.14
82222;BME280;71818;52.352;10.912;2023-08-12T00:44:19;100457.50;;;18.36;74.82
82222;BME280;71818;52.352;10.912;2023-08-12T00:46:44;100459.06;;;18.38;74.52
82222;BME280;71818;52.352;10.912;2023-08-12T00:49:10;100462.63;;;18.21;75.30
82222;BME280;71818;52.352;10.912;2023-08-12T00:51:38;100458.16;;;18.04;76.15
82222;BME280;71818;52.352;10.912;2023-08-12T00:54:05;100458.72;;;18.07;76.19
82222;BME280;71818;52.352;10.912;2023-08-12T00:56:32;100454.19;;;18.08;75.85
82222;BME280;71818;52.352;10.912;2023-08-12T00:59:00;100457.25;;;18.21;75.13
82222;BME280;71818;52.352;10.912;2023-08-12T01:01:26;100452.25;;;18.26;74.88
82222;BME280;71818;52.352;10.912;2023-08-12T01:03:52;100446.75;;;18.36;74.52
82222;BME280;71818;52.352;10.912;2023-08-12T01:06:17;100447.97;;;18.41;74.31
82222;BME280;71818;52.352;10.912;2023-08-12T01:08:43;100450.09;;;18.64;73.33
82222;BME280;71818;52.352;10.912;2023-08-12T01:14:23;100444.69;;;18.56;73.65
82222;BME280;71818;52.352;10.912;2023-08-12T01:16:55;100441.59;;;18.42;73.93
82222;BME280;71818;52.352;10.912;2023-08-12T01:19:30;100435.97;;;18.28;74.94
82222;BME280;71818;52.352;10.912;2023-08-12T01:22:00;100438.91;;;18.08;75.79
82222;BME280;71818;52.352;10.912;2023-08-12T01:24:39;100440.75;;;18.08;75.84
82222;BME280;71818;52.352;10.912;2023-08-12T01:27:06;100440.75;;;18.08;75.66
82222;BME280;71818;52.352;10.912;2023-08-12T01:29:41;100434.81;;;18.04;76.08
82222;BME280;71818;52.352;10.912;2023-08-12T01:35:15;100431.25;;;17.52;77.46
82222;BME280;71818;52.352;10.912;2023-08-12T01:37:43;100428.09;;;17.39;78.16
82222;BME280;71818;52.352;10.912;2023-08-12T01:40:10;100429.34;;;17.26;78.79
82222;BME280;71818;52.352;10.912;2023-08-12T01:42:36;100425.75;;;17.18;79.78
82222;BME280;71818;52.352;10.912;2023-08-12T01:45:02;100419.59;;;17.25;79.22
82222;BME280;71818;52.352;10.912;2023-08-12T01:47:28;100423.97;;;17.26;78.73
82222;BME280;71818;52.352;10.912;2023-08-12T01:49:54;100413.69;;;17.22;79.07
82222;BME280;71818;52.352;10.912;2023-08-12T01:52:20;100409.63;;;17.36;78.06
82222;BME280;71818;52.352;10.912;2023-08-12T01:54:45;100408.81;;;17.17;79.00
82222;BME280;71818;52.352;10.912;2023-08-12T01:57:11;100401.44;;;17.19;79.37
82222;BME280;71818;52.352;10.912;2023-08-12T01:59:36;100400.91;;;17.33;78.54
82222;BME280;71818;52.352;10.912;2023-08-12T02:02:02;100395.91;;;17.39;78.11
82222;BME280;71818;52.352;10.912;2023-08-12T02:04:28;100406.53;;;17.30;78.72
82222;BME280;71818;52.352;10.912;2023-08-12T02:06:54;100404.09;;;17.37;78.48
82222;BME280;71818;52.352;10.912;2023-08-12T02:09:20;100392.44;;;17.28;79.28
82222;BME280;71818;52.352;10.912;2023-08-12T02:11:46;100401.44;;;17.19;80.24
82222;BME280;71818;52.352;10.912;2023-08-12T02:14:11;100398.50;;;17.13;80.48
82222;BME280;71818;52.352;10.912;2023-08-12T02:16:36;100392.53;;;17.37;79.18
82222;BME280;71818;52.352;10.912;2023-08-12T02:19:02;100384.16;;;17.40;78.71
82222;BME280;71818;52.352;10.912;2023-08-12T02:21:27;100376.19;;;17.30;79.21
82222;BME280;71818;52.352;10.912;2023-08-12T02:23:53;100376.13;;;17.22;80.00
82222;BME280;71818;52.352;10.912;2023-08-12T02:26:18;100378.28;;;17.18;79.65
82222;BME280;71818;52.352;10.912;2023-08-12T02:28:43;100387.56;;;17.24;79.20
82222;BME280;71818;52.352;10.912;2023-08-12T02:31:09;100383.94;;;17.15;79.69
82222;BME280;71818;52.352;10.912;2023-08-12T02:33:34;100378.72;;;17.14;79.77
82222;BME280;71818;52.352;10.912;2023-08-12T02:35:59;100374.94;;;17.16;79.71
82222;BME280;71818;52.352;10.912;2023-08-12T02:38:25;100368.25;;;17.20;79.59
82222;BME280;71818;52.352;10.912;2023-08-12T02:40:50;100371.69;;;17.13;79.93
82222;BME280;71818;52.352;10.912;2023-08-12T02:43:19;100364.41;;;17.05;80.03
82222;BME280;71818;52.352;10.912;2023-08-12T02:45:44;100361.13;;;16.93;80.67
82222;BME280;71818;52.352;10.912;2023-08-12T02:48:10;100358.22;;;16.87;80.97
82222;BME280;71818;52.352;10.912;2023-08-12T02:50:36;100359.81;;;16.80;81.75
82222;BME280;71818;52.352;10.912;2023-08-12T02:53:02;100364.78;;;16.75;81.89
82222;BME280;71818;52.352;10.912;2023-08-12T02:55:27;100371.16;;;16.73;81.78
82222;BME280;71818;52.352;10.912;2023-08-12T02:57:53;100366.78;;;16.72;81.92
82222;BME280;71818;52.352;10.912;2023-08-12T03:00:18;100359.28;;;16.76;81.35
82222;BME280;71818;52.352;10.912;2023-08-12T03:02:44;100357.97;;;16.80;81.23
82222;BME280;71818;52.352;10.912;2023-08-12T03:05:09;100360.34;;;16.83;81.53
82222;BME280;71818;52.352;10.912;2023-08-12T03:07:35;100360.22;;;16.85;81.53
82222;BME280;71818;52.352;10.912;2023-08-12T03:10:00;100352.75;;;16.96;80.72
82222;BME280;71818;52.352;10.912;2023-08-12T03:12:26;100363.50;;;16.96;80.61
82222;BME280;71818;52.352;10.912;2023-08-12T03:14:51;100351.63;;;17.17;79.25
82222;BME280;71818;52.352;10.912;2023-08-12T03:17:17;100349.31;;;17.22;79.01
82222;BME280;71818;52.352;10.912;2023-08-12T03:19:42;100355.47;;;17.40;78.30
82222;BME280;71818;52.352;10.912;2023-08-12T03:22:08;100352.75;;;17.32;78.12
82222;BME280;71818;52.352;10.912;2023-08-12T03:24:33;100358.53;;;17.45;77.98
82222;BME280;71818;52.352;10.912;2023-08-12T03:26:59;100361.59;;;17.50;77.44
82222;BME280;71818;52.352;10.912;2023-08-12T03:29:24;100352.06;;;17.56;77.20
82222;BME280;71818;52.352;10.912;2023-08-12T03:31:50;100353.44;;;17.60;76.77
82222;BME280;71818;52.352;10.912;2023-08-12T03:34:15;100344.81;;;17.48;77.34
82222;BME280;71818;52.352;10.912;2023-08-12T03:36:40;100342.41;;;17.45;77.28
82222;BME280;71818;52.352;10.912;2023-08-12T03:39:06;100337.94;;;17.28;78.14
82222;BME280;71818;52.352;10.912;2023-08-12T03:41:32;100334.97;;;17.31;78.10
82222;BME280;71818;52.352;10.912;2023-08-12T03:43:57;100335.38;;;17.44;77.77
82222;BME280;71818;52.352;10.912;2023-08-12T03:46:23;100335.28;;;17.54;77.46
82222;BME280;71818;52.352;10.912;2023-08-12T03:48:48;100322.66;;;17.46;77.69
82222;BME280;71818;52.352;10.912;2023-08-12T03:51:13;100317.00;;;17.31;78.30
82222;BME280;71818;52.352;10.912;2023-08-12T03:53:39;100319.91;;;17.38;78.92
82222;BME280;71818;52.352;10.912;2023-08-12T03:56:04;100319.53;;;17.33;79.23
82222;BME280;71818;52.352;10.912;2023-08-12T03:58:29;100313.16;;;17.34;79.58
82222;BME280;71818;52.352;10.912;2023-08-12T04:00:55;100310.50;;;17.34;79.75
82222;BME280;71818;52.352;10.912;2023-08-12T04:03:20;100310.31;;;17.36;79.30
82222;BME280;71818;52.352;10.912;2023-08-12T04:05:52;100319.38;;;17.35;79.62
82222;BME280;71818;52.352;10.912;2023-08-12T04:08:19;100316.81;;;17.51;79.10
82222;BME280;71818;52.352;10.912;2023-08-12T04:10:48;100311.06;;;17.72;78.10
82222;BME280;71818;52.352;10.912;2023-08-12T04:13:14;100309.63;;;17.59;78.81
82222;BME280;71818;52.352;10.912;2023-08-12T04:15:40;100306.38;;;17.48;79.76
82222;BME280;71818;52.352;10.912;2023-08-12T04:18:05;100310.94;;;17.55;79.47
82222;BME280;71818;52.352;10.912;2023-08-12T04:20:31;100313.09;;;17.70;78.85
82222;BME280;71818;52.352;10.912;2023-08-12T04:22:56;100317.69;;;17.85;78.27
82222;BME280;71818;52.352;10.912;2023-08-12T04:25:22;100321.91;;;17.88;78.06
82222;BME280;71818;52.352;10.912;2023-08-12T04:27:48;100329.34;;;18.02;77.05
82222;BME280;71818;52.352;10.912;2023-08-12T04:30:15;100318.50;;;18.12;77.22
82222;BME280;71818;52.352;10.912;2023-08-12T04:32:41;100325.72;;;18.11;77.36
82222;BME280;71818;52.352;10.912;2023-08-12T04:35:06;100308.25;;;18.15;77.23
82222;BME280;71818;52.352;10.912;2023-08-12T04:37:32;100313.69;;;18.32;76.45
82222;BME280;71818;52.352;10.912;2023-08-12T04:39:58;100311.19;;;18.38;75.66
82222;BME280;71818;52.352;10.912;2023-08-12T04:42:23;100314.94;;;18.54;74.89
82222;BME280;71818;52.352;10.912;2023-08-12T04:44:49;100315.63;;;18.64;74.51
82222;BME280;71818;52.352;10.912;2023-08-12T04:47:14;100312.13;;;18.71;74.03
82222;BME280;71818;52.352;10.912;2023-08-12T04:49:39;100307.41;;;18.73;74.18
82222;BME280;71818;52.352;10.912;2023-08-12T04:52:05;100319.72;;;18.92;72.89
82222;BME280;71818;52.352;10.912;2023-08-12T04:54:32;100309.59;;;19.10;72.61
82222;BME280;71818;52.352;10.912;2023-08-12T04:56:57;100308.63;;;19.03;72.60
82222;BME280;71818;52.352;10.912;2023-08-12T04:59:23;100309.59;;;19.10;72.82
82222;BME280;71818;52.352;10.912;2023-08-12T05:01:48;100311.97;;;19.14;72.66
82222;BME280;71818;52.352;10.912;2023-08-12T05:04:15;100319.69;;;19.25;72.17
82222;BME280;71818;52.352;10.912;2023-08-12T05:06:40;100334.84;;;19.34;72.00
82222;BME280;71818;52.352;10.912;2023-08-12T05:09:05;100331.47;;;19.48;71.44
82222;BME280;71818;52.352;10.912;2023-08-12T05:11:31;100343.75;;;19.51;71.08
82222;BME280;71818;52.352;10.912;2023-08-12T05:13:56;100344.09;;;19.56;70.78
82222;BME280;71818;52.352;10.912;2023-08-12T05:16:22;100344.28;;;19.54;70.45
82222;BME280;71818;52.352;10.912;2023-08-12T05:18:47;100346.63;;;19.49;71.14
82222;BME280;71818;52.352;10.912;2023-08-12T05:21:12;100358.06;;;19.43;71.35
82222;BME280;71818;52.352;10.912;2023-08-12T05:23:38;100344.44;;;19.28;71.43
82222;BME280;71818;52.352;10.912;2023-08-12T05:26:03;100347.47;;;19.17;71.99
82222;BME280;71818;52.352;10.912;2023-08-12T05:28:28;100349.16;;;19.02;72.77
82222;BME280;71818;52.352;10.912;2023-08-12T05:30:54;100359.72;;;18.95;73.19
82222;BME280;71818;52.352;10.912;2023-08-12T05:33:21;100353.50;;;18.87;74.06
82222;BME280;71818;52.352;10.912;2023-08-12T05:35:50;100357.69;;;18.81;74.47
82222;BME280;71818;52.352;10.912;2023-08-12T05:38:16;100357.53;;;18.74;74.87
82222;BME280;71818;52.352;10.912;2023-08-12T05:40:42;100366.41;;;18.67;75.25
82222;BME280;71818;52.352;10.912;2023-08-12T05:43:08;100364.34;;;18.61;75.67
82222;BME280;71818;52.352;10.912;2023-08-12T05:45:34;100364.69;;;18.58;76.19
82222;BME280;71818;52.352;10.912;2023-08-12T05:47:59;100364.31;;;18.52;76.47
82222;BME280;71818;52.352;10.912;2023-08-12T05:50:24;100367.31;;;18.49;76.84
82222;BME280;71818;52.352;10.912;2023-08-12T05:52:50;100367.66;;;18.46;77.30
82222;BME280;71818;52.352;10.912;2023-08-12T05:55:15;100366.16;;;18.44;78.02
82222;BME280;71818;52.352;10.912;2023-08-12T05:57:41;100371.19;;;18.39;78.44
82222;BME280;71818;52.352;10.912;2023-08-12T06:00:06;100373.50;;;18.34;79.09
82222;BME280;71818;52.352;10.912;2023-08-12T06:02:32;100364.75;;;18.24;80.38
82222;BME280;71818;52.352;10.912;2023-08-12T06:04:57;100370.75;;;18.17;80.70
82222;BME280;71818;52.352;10.912;2023-08-12T06:07:23;100377.94;;;18.09;81.78
82222;BME280;71818;52.352;10.912;2023-08-12T06:09:49;100375.19;;;18.01;82.57
82222;BME280;71818;52.352;10.912;2023-08-12T06:12:15;100360.44;;;18.05;82.44
82222;BME280;71818;52.352;10.912;2023-08-12T06:14:40;100357.06;;;18.03;82.92
82222;BME280;71818;52.352;10.912;2023-08-12T06:17:06;100354.19;;;17.96;84.66
82222;BME280;71818;52.352;10.912;2023-08-12T06:19:32;100341.94;;;18.02;84.68
82222;BME280;71818;52.352;10.912;2023-08-12T06:21:57;100345.69;;;18.09;85.16
82222;BME280;71818;52.352;10.912;2023-08-12T06:24:22;100340.88;;;18.29;84.38
82222;BME280;71818;52.352;10.912;2023-08-12T06:26:48;100337.06;;;18.39;85.09
82222;BME280;71818;52.352;10.912;2023-08-12T06:29:13;100333.03;;;18.43;85.56
82222;BME280;71818;52.352;10.912;2023-08-12T06:31:39;100330.06;;;18.55;85.14
82222;BME280;71818;52.352;10.912;2023-08-12T06:34:04;100317.50;;;18.71;86.08
82222;BME280;71818;52.352;10.912;2023-08-12T06:36:29;100310.63;;;18.85;85.60
82222;BME280;71818;52.352;10.912;2023-08-12T06:38:55;100301.03;;;19.07;85.48
82222;BME280;71818;52.352;10.912;2023-08-12T06:41:20;100297.31;;;19.24;84.19
82222;BME280;71818;52.352;10.912;2023-08-12T06:43:45;100304.03;;;19.36;82.17
82222;BME280;71818;52.352;10.912;2023-08-12T06:46:11;100301.19;;;19.46;81.14
82222;BME280;71818;52.352;10.912;2023-08-12T06:48:36;100294.59;;;19.57;81.79
82222;BME280;71818;52.352;10.912;2023-08-12T06:51:01;100295.78;;;19.54;81.44
82222;BME280;71818;52.352;10.912;2023-08-12T06:53:32;100295.41;;;19.74;81.31
82222;BME280;71818;52.352;10.912;2023-08-12T06:55:57;100294.91;;;19.70;81.93
82222;BME280;71818;52.352;10.912;2023-08-12T06:58:23;100292.03;;;19.72;81.26
82222;BME280;71818;52.352;10.912;2023-08-12T07:00:48;100298.81;;;19.59;80.96
82222;BME280;71818;52.352;10.912;2023-08-12T07:03:13;100302.81;;;19.72;81.16
82222;BME280;71818;52.352;10.912;2023-08-12T07:05:39;100308.38;;;19.78;81.94
82222;BME280;71818;52.352;10.912;2023-08-12T07:08:04;100308.53;;;19.77;81.23
82222;BME280;71818;52.352;10.912;2023-08-12T07:10:30;100311.19;;;19.85;81.02
82222;BME280;71818;52.352;10.912;2023-08-12T07:12:55;100319.44;;;19.91;80.58
82222;BME280;71818;52.352;10.912;2023-08-12T07:15:20;100320.59;;;19.89;80.06
82222;BME280;71818;52.352;10.912;2023-08-12T07:17:46;100318.25;;;19.86;81.18
82222;BME280;71818;52.352;10.912;2023-08-12T07:20:11;100312.88;;;19.86;81.30
82222;BME280;71818;52.352;10.912;2023-08-12T07:22:36;100310.00;;;19.87;81.67
82222;BME280;71818;52.352;10.912;2023-08-12T07:25:02;100313.06;;;19.84;80.87
82222;BME280;71818;52.352;10.912;2023-08-12T07:27:27;100311.19;;;19.85;81.18
82222;BME280;71818;52.352;10.912;2023-08-12T07:29:53;100306.81;;;19.84;81.28
82222;BME280;71818;52.352;10.912;2023-08-12T07:32:19;100316.91;;;19.90;81.82
82222;BME280;71818;52.352;10.912;2023-08-12T07:34:44;100317.91;;;19.89;81.95
82222;BME280;71818;52.352;10.912;2023-08-12T07:37:10;100313.53;;;19.88;80.76
82222;BME280;71818;52.352;10.912;2023-08-12T07:39:36;100302.63;;;19.81;80.84
82222;BME280;71818;52.352;10.912;2023-08-12T07:42:01;100313.88;;;19.85;80.65
82222;BME280;71818;52.352;10.912;2023-08-12T07:44:26;100308.97;;;19.96;80.68
82222;BME280;71818;52.352;10.912;2023-08-12T07:46:52;100303.78;;;19.87;80.60
82222;BME280;71818;52.352;10.912;2023-08-12T07:49:17;100300.03;;;19.96;81.03
82222;BME280;71818;52.352;10.912;2023-08-12T07:51:42;100306.13;;;19.90;81.11
82222;BME280;71818;52.352;10.912;2023-08-12T07:54:08;100302.38;;;19.99;81.29
82222;BME280;71818;52.352;10.912;2023-08-12T07:56:33;100306.59;;;20.02;81.95
82222;BME280;71818;52.352;10.912;2023-08-12T07:58:58;100316.81;;;20.14;82.09
82222;BME280;71818;52.352;10.912;2023-08-12T08:01:24;100322.28;;;19.90;81.62
82222;BME280;71818;52.352;10.912;2023-08-12T08:03:49;100324.53;;;19.78;81.77
82222;BME280;71818;52.352;10.912;2023-08-12T08:06:15;100335.63;;;19.75;82.14
82222;BME280;71818;52.352;10.912;2023-08-12T08:08:40;100327.94;;;19.64;83.55
82222;BME280;71818;52.352;10.912;2023-08-12T08:11:06;100324.38;;;19.72;82.96
82222;BME280;71818;52.352;10.912;2023-08-12T08:13:31;100333.31;;;19.56;82.58
82222;BME280;71818;52.352;10.912;2023-08-12T08:15:56;100330.81;;;19.54;82.14
82222;BME280;71818;52.352;10.912;2023-08-12T08:18:22;100341.91;;;19.59;82.38
82222;BME280;71818;52.352;10.912;2023-08-12T08:20:47;100334.13;;;19.73;82.73
82222;BME280;71818;52.352;10.912;2023-08-12T08:23:13;100321.31;;;19.83;82.53
82222;BME280;71818;52.352;10.912;2023-08-12T08:25:38;100330.41;;;19.82;82.75
82222;BME280;71818;52.352;10.912;2023-08-12T08:28:04;100331.72;;;19.94;83.35
82222;BME280;71818;52.352;10.912;2023-08-12T08:30:29;100331.22;;;19.90;82.84
82222;BME280;71818;52.352;10.912;2023-08-12T08:32:55;100333.91;;;19.90;82.04
82222;BME280;71818;52.352;10.912;2023-08-12T08:35:20;100335.09;;;19.88;81.80
82222;BME280;71818;52.352;10.912;2023-08-12T08:37:45;100334.47;;;19.78;81.68
82222;BME280;71818;52.352;10.912;2023-08-12T08:40:11;100333.47;;;19.70;81.18
82222;BME280;71818;52.352;10.912;2023-08-12T08:42:37;100323.75;;;19.61;81.48
82222;BME280;71818;52.352;10.912;2023-08-12T08:45:06;100323.38;;;19.56;81.66
82222;BME280;71818;52.352;10.912;2023-08-12T08:47:37;100308.91;;;19.57;81.90
82222;BME280;71818;52.352;10.912;2023-08-12T08:50:03;100327.59;;;19.67;82.39
82222;BME280;71818;52.352;10.912;2023-08-12T08:52:29;100311.78;;;19.64;82.78
82222;BME280;71818;52.352;10.912;2023-08-12T08:54:56;100319.50;;;19.67;83.14
82222;BME280;71818;52.352;10.912;2023-08-12T08:57:22;100310.41;;;19.76;82.03
82222;BME280;71818;52.352;10.912;2023-08-12T08:59:48;100312.75;;;19.71;82.64
82222;BME280;71818;52.352;10.912;2023-08-12T09:02:16;100312.09;;;19.69;82.69
82222;BME280;71818;52.352;10.912;2023-08-12T09:04:44;100315.66;;;19.61;83.50
82222;BME280;71818;52.352;10.912;2023-08-12T09:07:10;100325.91;;;19.58;83.70
82222;BME280;71818;52.352;10.912;2023-08-12T09:09:36;100318.66;;;19.66;83.49
82222;BME280;71818;52.352;10.912;2023-08-12T09:12:03;100313.75;;;19.70;83.84
82222;BME280;71818;52.352;10.912;2023-08-12T09:14:29;100315.56;;;19.86;83.14
82222;BME280;71818;52.352;10.912;2023-08-12T09:16:55;100312.50;;;19.97;83.57
82222;BME280;71818;52.352;10.912;2023-08-12T09:19:22;100309.38;;;20.16;82.63
82222;BME280;71818;52.352;10.912;2023-08-12T09:21:54;100307.44;;;20.33;81.92
82222;BME280;71818;52.352;10.912;2023-08-12T09:24:26;100311.66;;;20.67;80.71
82222;BME280;71818;52.352;10.912;2023-08-12T09:26:53;100312.16;;;20.70;80.21
82222;BME280;71818;52.352;10.912;2023-08-12T09:29:42;100306.75;;;20.70;78.77
82222;BME280;71818;52.352;10.912;2023-08-12T09:32:11;100305.63;;;20.87;77.54
82222;BME280;71818;52.352;10.912;2023-08-12T09:34:43;100303.69;;;20.96;77.00
82222;BME280;71818;52.352;10.912;2023-08-12T09:37:12;100302.84;;;20.96;77.18
82222;BME280;71818;52.352;10.912;2023-08-12T09:39:38;100304.69;;;20.95;77.75
82222;BME280;71818;52.352;10.912;2023-08-12T09:42:04;100297.34;;;20.89;79.00
82222;BME280;71818;52.352;10.912;2023-08-12T09:44:29;100294.59;;;21.12;79.07
82222;BME280;71818;52.352;10.912;2023-08-12T09:46:58;100290.41;;;21.32;78.53
82222;BME280;71818;52.352;10.912;2023-08-12T09:49:24;100292.63;;;21.29;77.86
82222;BME280;71818;52.352;10.912;2023-08-12T09:51:50;100285.19;;;21.08;78.10
82222;BME280;71818;52.352;10.912;2023-08-12T09:54:17;100282.22;;;21.03;79.77
82222;BME280;71818;52.352;10.912;2023-08-12T09:56:46;100279.69;;;21.01;79.50
82222;BME280;71818;52.352;10.912;2023-08-12T09:59:12;100281.75;;;20.99;79.04
82222;BME280;71818;52.352;10.912;2023-08-12T10:01:40;100282.09;;;20.96;79.92
82222;BME280;71818;52.352;10.912;2023-08-12T10:04:11;100282.97;;;21.11;76.72
82222;BME280;71818;52.352;10.912;2023-08-12T10:06:40;100275.59;;;21.05;77.46
82222;BME280;71818;52.352;10.912;2023-08-12T10:09:06;100272.50;;;20.94;77.36
82222;BME280;71818;52.352;10.912;2023-08-12T10:11:34;100271.94;;;20.98;77.79
82222;BME280;71818;52.352;10.912;2023-08-12T10:14:01;100271.69;;;21.08;76.94
82222;BME280;71818;52.352;10.912;2023-08-12T10:16:29;100265.34;;;21.01;76.19
82222;BME280;71818;52.352;10.912;2023-08-12T10:18:56;100261.28;;;21.05;75.78
82222;BME280;71818;52.352;10.912;2023-08-12T10:21:22;100264.56;;;21.15;75.66
82222;BME280;71818;52.352;10.912;2023-08-12T10:23:50;100255.78;;;21.13;75.25
82222;BME280;71818;52.352;10.912;2023-08-12T10:26:17;100249.28;;;21.22;74.62
82222;BME280;71818;52.352;10.912;2023-08-12T10:28:42;100245.97;;;21.35;74.51
82222;BME280;71818;52.352;10.912;2023-08-12T10:31:08;100250.19;;;21.52;74.19
82222;BME280;71818;52.352;10.912;2023-08-12T10:33:37;100243.34;;;21.86;71.61
82222;BME280;71818;52.352;10.912;2023-08-12T10:36:04;100237.28;;;22.13;72.50
82222;BME280;71818;52.352;10.912;2023-08-12T10:38:31;100227.59;;;22.61;71.40
82222;BME280;71818;52.352;10.912;2023-08-12T10:41:23;100226.84;;;23.17;68.77
82222;BME280;71818;52.352;10.912;2023-08-12T10:46:42;100210.00;;;23.97;65.96
82222;BME280;71818;52.352;10.912;2023-08-12T10:49:14;100208.63;;;24.28;64.67
82222;BME280;71818;52.352;10.912;2023-08-12T10:54:23;100203.06;;;23.88;64.78
82222;BME280;71818;52.352;10.912;2023-08-12T11:02:16;100207.97;;;24.19;64.01
82222;BME280;71818;52.352;10.912;2023-08-12T11:04:42;100206.84;;;23.94;65.24
82222;BME280;71818;52.352;10.912;2023-08-12T11:07:18;100205.75;;;23.75;66.27
82222;BME280;71818;52.352;10.912;2023-08-12T11:09:45;100216.63;;;23.47;65.96
82222;BME280;71818;52.352;10.912;2023-08-12T11:12:11;100217.78;;;23.59;66.84
82222;BME280;71818;52.352;10.912;2023-08-12T11:14:53;100209.25;;;23.69;66.07
82222;BME280;71818;52.352;10.912;2023-08-12T11:17:18;100210.19;;;23.96;65.74
82222;BME280;71818;52.352;10.912;2023-08-12T11:19:44;100208.72;;;23.52;66.65
82222;BME280;71818;52.352;10.912;2023-08-12T11:22:09;100209.44;;;23.61;66.25
82222;BME280;71818;52.352;10.912;2023-08-12T11:24:40;100200.66;;;24.06;67.26
82222;BME280;71818;52.352;10.912;2023-08-12T11:27:09;100195.13;;;24.41;66.04
82222;BME280;71818;52.352;10.912;2023-08-12T11:29:34;100193.47;;;24.73;64.28
82222;BME280;71818;52.352;10.912;2023-08-12T11:32:00;100193.38;;;24.27;65.25
82222;BME280;71818;52.352;10.912;2023-08-12T11:34:26;100195.81;;;24.02;64.74
82222;BME280;71818;52.352;10.912;2023-08-12T11:36:51;100201.06;;;24.10;66.11
82222;BME280;71818;52.352;10.912;2023-08-12T11:39:17;100192.88;;;23.97;68.73
82222;BME280;71818;52.352;10.912;2023-08-12T11:41:42;100192.13;;;24.23;67.19
82222;BME280;71818;52.352;10.912;2023-08-12T11:44:14;100184.22;;;24.34;64.91
82222;BME280;71818;52.352;10.912;2023-08-12T11:46:40;100190.94;;;24.65;65.64
82222;BME280;71818;52.352;10.912;2023-08-12T11:49:06;100182.59;;;24.73;63.42
82222;BME280;71818;52.352;10.912;2023-08-12T11:51:31;100181.75;;;24.79;64.11
82222;BME280;71818;52.352;10.912;2023-08-12T11:53:57;100167.41;;;25.70;63.97
82222;BME280;71818;52.352;10.912;2023-08-12T11:56:22;100157.03;;;26.36;59.60
82222;BME280;71818;52.352;10.912;2023-08-12T11:58:52;100153.84;;;26.33;58.26
82222;BME280;71818;52.352;10.912;2023-08-12T12:01:21;100151.78;;;26.35;59.58
82222;BME280;71818;52.352;10.912;2023-08-12T12:03:53;100162.47;;;25.40;59.00
82222;BME280;71818;52.352;10.912;2023-08-12T12:06:36;100148.53;;;26.51;59.38
82222;BME280;71818;52.352;10.912;2023-08-12T12:09:05;100146.34;;;25.97;60.23
82222;BME280;71818;52.352;10.912;2023-08-12T12:11:32;100141.53;;;25.99;59.47
82222;BME280;71818;52.352;10.912;2023-08-12T12:14:03;100143.06;;;25.30;59.79
82222;BME280;71818;52.352;10.912;2023-08-12T12:16:41;100132.50;;;26.05;58.73
82222;BME280;71818;52.352;10.912;2023-08-12T12:19:15;100127.97;;;26.24;58.01
82222;BME280;71818;52.352;10.912;2023-08-12T12:21:41;100113.56;;;26.16;58.59
82222;BME280;71818;52.352;10.912;2023-08-12T12:24:10;100110.94;;;26.35;57.89
82222;BME280;71818;52.352;10.912;2023-08-12T12:26:36;100108.66;;;26.82;59.29
82222;BME280;71818;52.352;10.912;2023-08-12T12:29:03;100120.97;;;25.65;58.47
82222;BME280;71818;52.352;10.912;2023-08-12T12:31:32;100119.97;;;26.29;58.99
82222;BME280;71818;52.352;10.912;2023-08-12T12:33:58;100123.16;;;25.87;59.50
82222;BME280;71818;52.352;10.912;2023-08-12T12:36:24;100123.91;;;25.70;59.79
82222;BME280;71818;52.352;10.912;2023-08-12T12:38:49;100119.97;;;26.04;58.74
82222;BME280;71818;52.352;10.912;2023-08-12T12:41:14;100112.25;;;25.94;59.17
82222;BME280;71818;52.352;10.912;2023-08-12T12:43:40;100118.81;;;25.80;59.42
82222;BME280;71818;52.352;10.912;2023-08-12T12:46:05;100126.13;;;26.49;58.39
82222;BME280;71818;52.352;10.912;2023-08-12T12:48:30;100119.41;;;26.95;55.84
82222;BME280;71818;52.352;10.912;2023-08-12T12:50:56;100121.44;;;27.24;55.38
82222;BME280;71818;52.352;10.912;2023-08-12T12:53:21;100122.25;;;27.25;54.39